sensor_id;sensor_type;location;lat;lon;timestamp;P1;durP1;ratioP1;P2;durP2;ratioP2
60030;SDS011;45901;47.600;9.890;2023-01-26T00:01:16;24.13;;;13.00;;
60030;SDS011;45901;47.600;9.890;2023-01-26T00:03:46;24.17;;;13.73;;
60030;SDS011;45901;47.600;9.890;2023-01-26T00:06:14;21.17;;;12.27;;
60030;SDS011;45901;47.600;9.890;2023-01-26T00:08:45;25.77;;;11.67;;
60030;SDS011;45901;47.600;9.890;2023-01-26T00:11:15;24.70;;;12.30;;
60030;SDS011;45901;47.600;9.890;2023-01-26T00:13:44;25.90;;;13.30;;
60030;SDS011;45901;47.600;9.890;2023-01-26T00:16:14;24.67;;;12.87;;
60030;SDS011;45901;47.600;9.890;2023-01-26T00:18:41;23.80;;;12.93;;
60030;SDS011;45901;47.600;9.890;2023-01-26T00:21:10;23.77;;;12.77;;
60030;SDS011;45901;47.600;9.890;2023-01-26T00:23:40;25.43;;;13.50;;
60030;SDS011;45901;47.600;9.890;2023-01-26T00:26:08;26.90;;;13.57;;
60030;SDS011;45901;47.600;9.890;2023-01-26T00:28:39;23.40;;;13.03;;
60030;SDS011;45901;47.600;9.890;2023-01-26T00:31:09;29.17;;;14.37;;
60030;SDS011;45901;47.600;9.890;2023-01-26T00:33:38;21.47;;;12.30;;
60030;SDS011;45901;47.600;9.890;2023-01-26T00:36:06;28.90;;;14.00;;
60030;SDS011;45901;47.600;9.890;2023-01-26T00:38:34;25.47;;;14.17;;
60030;SDS011;45901;47.600;9.890;2023-01-26T00:41:01;26.40;;;14.20;;
60030;SDS011;45901;47.600;9.890;2023-01-26T00:43:29;27.23;;;13.70;;
60030;SDS011;45901;47.600;9.890;2023-01-26T00:45:57;26.13;;;13.70;;
60030;SDS011;45901;47.600;9.890;2023-01-26T00:48:25;25.60;;;13.73;;
60030;SDS011;45901;47.600;9.890;2023-01-26T00:50:52;25.57;;;14.03;;
60030;SDS011;45901;47.600;9.890;2023-01-26T00:53:19;22.97;;;12.67;;
60030;SDS011;45901;47.600;9.890;2023-01-26T00:55:46;24.13;;;12.93;;
60030;SDS011;45901;47.600;9.890;2023-01-26T00:58:13;27.03;;;14.43;;
60030;SDS011;45901;47.600;9.890;2023-01-26T01:00:41;31.90;;;15.03;;
60030;SDS011;45901;47.600;9.890;2023-01-26T01:03:09;27.87;;;14.93;;
60030;SDS011;45901;47.600;9.890;2023-01-26T01:05:36;27.37;;;15.10;;
60030;SDS011;45901;47.600;9.890;2023-01-26T01:08:04;28.47;;;15.00;;
60030;SDS011;45901;47.600;9.890;2023-01-26T01:10:31;30.10;;;15.37;;
60030;SDS011;45901;47.600;9.890;2023-01-26T01:12:58;24.93;;;14.03;;
60030;SDS011;45901;47.600;9.890;2023-01-26T01:15:25;27.87;;;14.17;;
60030;SDS011;45901;47.600;9.890;2023-01-26T01:17:53;29.77;;;14.27;;
60030;SDS011;45901;47.600;9.890;2023-01-26T01:20:21;28.50;;;14.97;;
60030;SDS011;45901;47.600;9.890;2023-01-26T01:22:49;29.47;;;14.73;;
60030;SDS011;45901;47.600;9.890;2023-01-26T01:25:17;32.60;;;15.60;;
60030;SDS011;45901;47.600;9.890;2023-01-26T01:27:45;26.83;;;14.57;;
60030;SDS011;45901;47.600;9.890;2023-01-26T01:30:12;28.13;;;15.13;;
60030;SDS011;45901;47.600;9.890;2023-01-26T01:32:39;32.53;;;15.50;;
60030;SDS011;45901;47.600;9.890;2023-01-26T01:35:08;25.70;;;13.73;;
60030;SDS011;45901;47.600;9.890;2023-01-26T01:37:37;26.73;;;14.27;;
60030;SDS011;45901;47.600;9.890;2023-01-26T01:40:05;26.47;;;13.50;;
60030;SDS011;45901;47.600;9.890;2023-01-26T01:42:37;32.73;;;15.27;;
60030;SDS011;45901;47.600;9.890;2023-01-26T01:48:08;31.47;;;15.17;;
60030;SDS011;45901;47.600;9.890;2023-01-26T01:50:46;29.60;;;14.97;;
60030;SDS011;45901;47.600;9.890;2023-01-26T01:53:17;34.57;;;16.20;;
60030;SDS011;45901;47.600;9.890;2023-01-26T01:55:49;30.73;;;16.17;;
60030;SDS011;45901;47.600;9.890;2023-01-26T01:58:20;26.97;;;13.93;;
60030;SDS011;45901;47.600;9.890;2023-01-26T02:00:47;30.03;;;15.53;;
60030;SDS011;45901;47.600;9.890;2023-01-26T02:03:14;31.93;;;15.80;;
60030;SDS011;45901;47.600;9.890;2023-01-26T02:05:47;35.03;;;15.07;;
60030;SDS011;45901;47.600;9.890;2023-01-26T02:08:23;28.23;;;14.23;;
60030;SDS011;45901;47.600;9.890;2023-01-26T02:10:55;29.37;;;15.47;;
60030;SDS011;45901;47.600;9.890;2023-01-26T02:13:28;28.73;;;15.47;;
60030;SDS011;45901;47.600;9.890;2023-01-26T02:16:00;26.43;;;14.03;;
60030;SDS011;45901;47.600;9.890;2023-01-26T02:18:27;30.50;;;15.60;;
60030;SDS011;45901;47.600;9.890;2023-01-26T02:20:55;29.27;;;14.47;;
60030;SDS011;45901;47.600;9.890;2023-01-26T02:23:30;26.77;;;14.20;;
60030;SDS011;45901;47.600;9.890;2023-01-26T02:26:15;31.07;;;14.97;;
60030;SDS011;45901;47.600;9.890;2023-01-26T02:28:45;27.47;;;14.63;;
60030;SDS011;45901;47.600;9.890;2023-01-26T02:31:13;31.20;;;14.70;;
60030;SDS011;45901;47.600;9.890;2023-01-26T02:33:42;28.00;;;14.37;;
60030;SDS011;45901;47.600;9.890;2023-01-26T02:36:16;29.63;;;15.10;;
60030;SDS011;45901;47.600;9.890;2023-01-26T02:38:48;30.87;;;15.53;;
60030;SDS011;45901;47.600;9.890;2023-01-26T02:41:25;30.37;;;15.63;;
60030;SDS011;45901;47.600;9.890;2023-01-26T02:44:10;26.00;;;13.60;;
60030;SDS011;45901;47.600;9.890;2023-01-26T02:46:38;34.30;;;16.00;;
60030;SDS011;45901;47.600;9.890;2023-01-26T02:49:06;39.37;;;16.77;;
60030;SDS011;45901;47.600;9.890;2023-01-26T02:51:50;27.57;;;14.57;;
60030;SDS011;45901;47.600;9.890;2023-01-26T02:54:17;26.93;;;13.97;;
60030;SDS011;45901;47.600;9.890;2023-01-26T02:57:04;26.33;;;13.80;;
60030;SDS011;45901;47.600;9.890;2023-01-26T02:59:31;30.30;;;14.93;;
60030;SDS011;45901;47.600;9.890;2023-01-26T03:01:59;30.03;;;14.83;;
60030;SDS011;45901;47.600;9.890;2023-01-26T03:04:26;29.87;;;14.57;;
60030;SDS011;45901;47.600;9.890;2023-01-26T03:06:53;31.57;;;14.93;;
60030;SDS011;45901;47.600;9.890;2023-01-26T03:09:20;31.57;;;16.00;;
60030;SDS011;45901;47.600;9.890;2023-01-26T03:11:48;32.07;;;15.30;;
60030;SDS011;45901;47.600;9.890;2023-01-26T03:14:17;33.90;;;16.03;;
60030;SDS011;45901;47.600;9.890;2023-01-26T03:16:44;31.37;;;16.43;;
60030;SDS011;45901;47.600;9.890;2023-01-26T03:19:12;32.97;;;16.53;;
60030;SDS011;45901;47.600;9.890;2023-01-26T03:21:58;28.77;;;13.40;;
60030;SDS011;45901;47.600;9.890;2023-01-26T03:24:43;22.63;;;12.13;;
60030;SDS011;45901;47.600;9.890;2023-01-26T03:27:27;20.77;;;11.33;;
60030;SDS011;45901;47.600;9.890;2023-01-26T03:29:58;22.83;;;12.43;;
60030;SDS011;45901;47.600;9.890;2023-01-26T03:32:25;24.97;;;12.63;;
60030;SDS011;45901;47.600;9.890;2023-01-26T03:34:53;24.40;;;13.23;;
60030;SDS011;45901;47.600;9.890;2023-01-26T03:37:20;30.57;;;14.80;;
60030;SDS011;45901;47.600;9.890;2023-01-26T03:39:48;30.07;;;14.83;;
60030;SDS011;45901;47.600;9.890;2023-01-26T03:42:33;33.57;;;15.03;;
60030;SDS011;45901;47.600;9.890;2023-01-26T03:45:19;29.37;;;14.73;;
60030;SDS011;45901;47.600;9.890;2023-01-26T03:48:05;32.30;;;16.03;;
60030;SDS011;45901;47.600;9.890;2023-01-26T03:50:52;34.03;;;16.40;;
60030;SDS011;45901;47.600;9.890;2023-01-26T03:53:37;35.40;;;17.20;;
60030;SDS011;45901;47.600;9.890;2023-01-26T03:56:21;34.63;;;16.50;;
60030;SDS011;45901;47.600;9.890;2023-01-26T03:58:50;34.50;;;16.47;;
60030;SDS011;45901;47.600;9.890;2023-01-26T04:01:20;34.03;;;16.53;;
60030;SDS011;45901;47.600;9.890;2023-01-26T04:03:56;35.27;;;16.60;;
60030;SDS011;45901;47.600;9.890;2023-01-26T04:06:41;32.70;;;16.27;;
60030;SDS011;45901;47.600;9.890;2023-01-26T04:09:29;34.00;;;16.60;;
60030;SDS011;45901;47.600;9.890;2023-01-26T04:11:57;32.37;;;16.40;;
60030;SDS011;45901;47.600;9.890;2023-01-26T04:14:25;37.83;;;18.53;;
60030;SDS011;45901;47.600;9.890;2023-01-26T04:17:10;37.97;;;17.57;;
60030;SDS011;45901;47.600;9.890;2023-01-26T04:19:55;29.83;;;15.97;;
60030;SDS011;45901;47.600;9.890;2023-01-26T04:22:40;35.87;;;17.13;;
60030;SDS011;45901;47.600;9.890;2023-01-26T04:25:10;35.43;;;17.57;;
60030;SDS011;45901;47.600;9.890;2023-01-26T04:27:39;33.87;;;17.07;;
60030;SDS011;45901;47.600;9.890;2023-01-26T04:30:09;32.67;;;17.60;;
60030;SDS011;45901;47.600;9.890;2023-01-26T04:32:39;35.67;;;18.07;;
60030;SDS011;45901;47.600;9.890;2023-01-26T04:35:07;36.90;;;18.40;;
60030;SDS011;45901;47.600;9.890;2023-01-26T04:37:35;34.20;;;17.40;;
60030;SDS011;45901;47.600;9.890;2023-01-26T04:40:02;33.30;;;16.17;;
60030;SDS011;45901;47.600;9.890;2023-01-26T04:42:32;36.17;;;17.47;;
60030;SDS011;45901;47.600;9.890;2023-01-26T04:44:59;34.53;;;18.20;;
60030;SDS011;45901;47.600;9.890;2023-01-26T04:47:26;35.87;;;17.80;;
60030;SDS011;45901;47.600;9.890;2023-01-26T04:49:54;32.73;;;17.07;;
60030;SDS011;45901;47.600;9.890;2023-01-26T04:52:21;34.57;;;17.27;;
60030;SDS011;45901;47.600;9.890;2023-01-26T04:54:49;32.47;;;16.60;;
60030;SDS011;45901;47.600;9.890;2023-01-26T04:57:16;32.37;;;16.63;;
60030;SDS011;45901;47.600;9.890;2023-01-26T04:59:44;37.10;;;18.20;;
60030;SDS011;45901;47.600;9.890;2023-01-26T05:02:11;33.67;;;17.00;;
60030;SDS011;45901;47.600;9.890;2023-01-26T05:04:39;33.53;;;16.60;;
60030;SDS011;45901;47.600;9.890;2023-01-26T05:07:07;33.83;;;16.87;;
60030;SDS011;45901;47.600;9.890;2023-01-26T05:09:35;34.17;;;17.37;;
60030;SDS011;45901;47.600;9.890;2023-01-26T05:12:02;33.43;;;17.47;;
60030;SDS011;45901;47.600;9.890;2023-01-26T05:14:43;35.40;;;18.80;;
60030;SDS011;45901;47.600;9.890;2023-01-26T05:17:11;32.53;;;17.27;;
60030;SDS011;45901;47.600;9.890;2023-01-26T05:19:38;33.87;;;17.17;;
60030;SDS011;45901;47.600;9.890;2023-01-26T05:22:05;35.87;;;18.70;;
60030;SDS011;45901;47.600;9.890;2023-01-26T05:24:34;32.00;;;17.20;;
60030;SDS011;45901;47.600;9.890;2023-01-26T05:27:01;35.77;;;17.40;;
60030;SDS011;45901;47.600;9.890;2023-01-26T05:29:46;35.83;;;16.53;;
60030;SDS011;45901;47.600;9.890;2023-01-26T05:32:13;32.27;;;16.80;;
60030;SDS011;45901;47.600;9.890;2023-01-26T05:34:41;32.10;;;16.50;;
60030;SDS011;45901;47.600;9.890;2023-01-26T05:37:09;32.50;;;15.63;;
60030;SDS011;45901;47.600;9.890;2023-01-26T05:39:36;30.57;;;15.90;;
60030;SDS011;45901;47.600;9.890;2023-01-26T05:42:04;37.07;;;17.30;;
60030;SDS011;45901;47.600;9.890;2023-01-26T05:44:31;33.90;;;17.30;;
60030;SDS011;45901;47.600;9.890;2023-01-26T05:46:58;34.20;;;17.03;;
60030;SDS011;45901;47.600;9.890;2023-01-26T05:49:25;33.57;;;16.80;;
60030;SDS011;45901;47.600;9.890;2023-01-26T05:51:53;33.47;;;16.90;;
60030;SDS011;45901;47.600;9.890;2023-01-26T05:54:22;32.63;;;17.47;;
60030;SDS011;45901;47.600;9.890;2023-01-26T05:56:50;34.07;;;17.10;;
60030;SDS011;45901;47.600;9.890;2023-01-26T05:59:18;34.93;;;18.33;;
60030;SDS011;45901;47.600;9.890;2023-01-26T06:01:46;38.47;;;17.90;;
60030;SDS011;45901;47.600;9.890;2023-01-26T06:04:13;34.33;;;17.53;;
60030;SDS011;45901;47.600;9.890;2023-01-26T06:06:41;33.90;;;17.30;;
60030;SDS011;45901;47.600;9.890;2023-01-26T06:09:08;36.50;;;18.40;;
60030;SDS011;45901;47.600;9.890;2023-01-26T06:11:37;37.00;;;17.77;;
60030;SDS011;45901;47.600;9.890;2023-01-26T06:14:04;33.40;;;17.27;;
60030;SDS011;45901;47.600;9.890;2023-01-26T06:16:32;35.23;;;17.47;;
60030;SDS011;45901;47.600;9.890;2023-01-26T06:18:59;30.47;;;16.67;;
60030;SDS011;45901;47.600;9.890;2023-01-26T06:21:26;34.13;;;17.53;;
60030;SDS011;45901;47.600;9.890;2023-01-26T06:23:53;29.70;;;15.57;;
60030;SDS011;45901;47.600;9.890;2023-01-26T06:26:20;37.93;;;19.57;;
60030;SDS011;45901;47.600;9.890;2023-01-26T06:28:50;36.30;;;17.23;;
60030;SDS011;45901;47.600;9.890;2023-01-26T06:31:18;38.03;;;17.67;;
60030;SDS011;45901;47.600;9.890;2023-01-26T06:33:45;35.67;;;17.97;;
60030;SDS011;45901;47.600;9.890;2023-01-26T06:36:14;36.27;;;17.60;;
60030;SDS011;45901;47.600;9.890;2023-01-26T06:38:44;34.30;;;16.77;;
60030;SDS011;45901;47.600;9.890;2023-01-26T06:41:14;36.90;;;18.50;;
60030;SDS011;45901;47.600;9.890;2023-01-26T06:43:43;34.63;;;17.43;;
60030;SDS011;45901;47.600;9.890;2023-01-26T06:46:14;32.63;;;17.07;;
60030;SDS011;45901;47.600;9.890;2023-01-26T06:48:43;36.47;;;17.80;;
60030;SDS011;45901;47.600;9.890;2023-01-26T06:54:13;34.97;;;18.53;;
60030;SDS011;45901;47.600;9.890;2023-01-26T06:56:41;39.63;;;18.77;;
60030;SDS011;45901;47.600;9.890;2023-01-26T06:59:08;34.50;;;16.73;;
60030;SDS011;45901;47.600;9.890;2023-01-26T07:01:37;36.47;;;18.47;;
60030;SDS011;45901;47.600;9.890;2023-01-26T07:04:12;34.67;;;17.20;;
60030;SDS011;45901;47.600;9.890;2023-01-26T07:06:40;32.97;;;17.43;;
60030;SDS011;45901;47.600;9.890;2023-01-26T07:09:08;35.87;;;16.90;;
60030;SDS011;45901;47.600;9.890;2023-01-26T07:11:39;32.37;;;16.93;;
60030;SDS011;45901;47.600;9.890;2023-01-26T07:14:06;34.13;;;16.90;;
60030;SDS011;45901;47.600;9.890;2023-01-26T07:16:34;38.07;;;18.07;;
60030;SDS011;45901;47.600;9.890;2023-01-26T07:19:02;37.57;;;18.23;;
60030;SDS011;45901;47.600;9.890;2023-01-26T07:21:30;40.73;;;19.37;;
60030;SDS011;45901;47.600;9.890;2023-01-26T07:23:59;41.50;;;18.53;;
60030;SDS011;45901;47.600;9.890;2023-01-26T07:26:26;41.37;;;19.47;;
60030;SDS011;45901;47.600;9.890;2023-01-26T07:28:53;39.60;;;20.03;;
60030;SDS011;45901;47.600;9.890;2023-01-26T07:31:20;37.57;;;18.90;;
60030;SDS011;45901;47.600;9.890;2023-01-26T07:33:48;36.40;;;17.43;;
60030;SDS011;45901;47.600;9.890;2023-01-26T07:36:17;38.40;;;18.17;;
60030;SDS011;45901;47.600;9.890;2023-01-26T07:38:44;35.53;;;17.37;;
60030;SDS011;45901;47.600;9.890;2023-01-26T07:41:11;35.50;;;17.87;;
60030;SDS011;45901;47.600;9.890;2023-01-26T07:43:38;36.17;;;18.07;;
60030;SDS011;45901;47.600;9.890;2023-01-26T07:46:06;30.47;;;16.80;;
60030;SDS011;45901;47.600;9.890;2023-01-26T07:48:34;35.23;;;16.93;;
60030;SDS011;45901;47.600;9.890;2023-01-26T07:51:03;33.07;;;17.93;;
60030;SDS011;45901;47.600;9.890;2023-01-26T07:53:36;33.03;;;16.50;;
60030;SDS011;45901;47.600;9.890;2023-01-26T07:56:06;35.07;;;18.13;;
60030;SDS011;45901;47.600;9.890;2023-01-26T07:58:36;32.17;;;16.57;;
60030;SDS011;45901;47.600;9.890;2023-01-26T08:01:05;32.30;;;16.93;;
60030;SDS011;45901;47.600;9.890;2023-01-26T08:03:34;33.40;;;16.87;;
60030;SDS011;45901;47.600;9.890;2023-01-26T08:06:02;32.87;;;16.70;;
60030;SDS011;45901;47.600;9.890;2023-01-26T08:08:31;34.27;;;16.67;;
60030;SDS011;45901;47.600;9.890;2023-01-26T08:11:00;31.40;;;16.07;;
60030;SDS011;45901;47.600;9.890;2023-01-26T08:13:27;34.37;;;16.03;;
60030;SDS011;45901;47.600;9.890;2023-01-26T08:15:59;33.57;;;16.50;;
60030;SDS011;45901;47.600;9.890;2023-01-26T08:18:27;35.13;;;17.17;;
60030;SDS011;45901;47.600;9.890;2023-01-26T08:20:56;36.90;;;17.83;;
60030;SDS011;45901;47.600;9.890;2023-01-26T08:23:24;32.83;;;17.40;;
60030;SDS011;45901;47.600;9.890;2023-01-26T08:25:51;35.60;;;17.27;;
60030;SDS011;45901;47.600;9.890;2023-01-26T08:28:20;30.90;;;16.27;;
60030;SDS011;45901;47.600;9.890;2023-01-26T08:30:47;39.47;;;19.20;;
60030;SDS011;45901;47.600;9.890;2023-01-26T08:33:15;38.43;;;20.00;;
60030;SDS011;45901;47.600;9.890;2023-01-26T08:35:42;39.87;;;19.87;;
60030;SDS011;45901;47.600;9.890;2023-01-26T08:38:09;35.53;;;17.37;;
60030;SDS011;45901;47.600;9.890;2023-01-26T08:40:36;36.17;;;17.50;;
60030;SDS011;45901;47.600;9.890;2023-01-26T08:43:04;33.00;;;17.67;;
60030;SDS011;45901;47.600;9.890;2023-01-26T08:45:32;35.77;;;17.80;;
60030;SDS011;45901;47.600;9.890;2023-01-26T08:47:59;35.53;;;16.70;;
60030;SDS011;45901;47.600;9.890;2023-01-26T08:50:26;34.17;;;18.67;;
60030;SDS011;45901;47.600;9.890;2023-01-26T08:52:54;33.83;;;17.63;;
60030;SDS011;45901;47.600;9.890;2023-01-26T08:55:22;34.67;;;17.07;;
60030;SDS011;45901;47.600;9.890;2023-01-26T08:57:52;34.47;;;16.80;;
60030;SDS011;45901;47.600;9.890;2023-01-26T09:00:21;34.40;;;17.33;;
60030;SDS011;45901;47.600;9.890;2023-01-26T09:02:52;32.27;;;17.30;;
60030;SDS011;45901;47.600;9.890;2023-01-26T09:05:24;35.47;;;16.47;;
60030;SDS011;45901;47.600;9.890;2023-01-26T09:07:52;37.17;;;17.53;;
60030;SDS011;45901;47.600;9.890;2023-01-26T09:10:19;34.07;;;16.93;;
60030;SDS011;45901;47.600;9.890;2023-01-26T09:12:46;31.23;;;16.37;;
60030;SDS011;45901;47.600;9.890;2023-01-26T09:15:13;34.10;;;17.47;;
60030;SDS011;45901;47.600;9.890;2023-01-26T09:17:41;34.10;;;17.50;;
60030;SDS011;45901;47.600;9.890;2023-01-26T09:20:10;38.00;;;18.07;;
60030;SDS011;45901;47.600;9.890;2023-01-26T09:22:37;37.37;;;17.03;;
60030;SDS011;45901;47.600;9.890;2023-01-26T09:25:14;33.20;;;16.70;;
60030;SDS011;45901;47.600;9.890;2023-01-26T09:27:41;32.13;;;16.13;;
60030;SDS011;45901;47.600;9.890;2023-01-26T09:30:09;35.30;;;17.27;;
60030;SDS011;45901;47.600;9.890;2023-01-26T09:32:46;33.43;;;16.07;;
60030;SDS011;45901;47.600;9.890;2023-01-26T09:35:15;35.40;;;17.27;;
60030;SDS011;45901;47.600;9.890;2023-01-26T09:37:44;35.53;;;17.30;;
60030;SDS011;45901;47.600;9.890;2023-01-26T09:40:21;30.67;;;16.03;;
60030;SDS011;45901;47.600;9.890;2023-01-26T09:43:03;39.63;;;17.67;;
60030;SDS011;45901;47.600;9.890;2023-01-26T09:45:44;32.97;;;15.20;;
60030;SDS011;45901;47.600;9.890;2023-01-26T09:48:22;31.30;;;15.43;;
60030;SDS011;45901;47.600;9.890;2023-01-26T09:51:02;27.60;;;14.63;;
60030;SDS011;45901;47.600;9.890;2023-01-26T09:53:39;32.60;;;14.63;;
60030;SDS011;45901;47.600;9.890;2023-01-26T09:56:16;27.20;;;14.10;;
60030;SDS011;45901;47.600;9.890;2023-01-26T09:58:46;32.67;;;14.70;;
60030;SDS011;45901;47.600;9.890;2023-01-26T10:01:21;31.37;;;15.07;;
60030;SDS011;45901;47.600;9.890;2023-01-26T10:03:59;29.63;;;14.53;;
60030;SDS011;45901;47.600;9.890;2023-01-26T10:06:36;29.20;;;13.77;;
60030;SDS011;45901;47.600;9.890;2023-01-26T10:09:05;34.63;;;14.90;;
60030;SDS011;45901;47.600;9.890;2023-01-26T10:11:42;29.53;;;14.67;;
60030;SDS011;45901;47.600;9.890;2023-01-26T10:14:14;30.93;;;14.80;;
60030;SDS011;45901;47.600;9.890;2023-01-26T10:16:47;28.83;;;14.50;;
60030;SDS011;45901;47.600;9.890;2023-01-26T10:19:19;30.03;;;15.57;;
60030;SDS011;45901;47.600;9.890;2023-01-26T10:21:59;34.13;;;16.03;;
60030;SDS011;45901;47.600;9.890;2023-01-26T10:24:35;30.10;;;14.97;;
60030;SDS011;45901;47.600;9.890;2023-01-26T10:27:05;29.97;;;14.70;;
60030;SDS011;45901;47.600;9.890;2023-01-26T10:29:38;30.57;;;15.00;;
60030;SDS011;45901;47.600;9.890;2023-01-26T10:32:07;34.73;;;15.63;;
60030;SDS011;45901;47.600;9.890;2023-01-26T10:34:39;29.77;;;15.03;;
60030;SDS011;45901;47.600;9.890;2023-01-26T10:37:18;34.33;;;16.00;;
60030;SDS011;45901;47.600;9.890;2023-01-26T10:39:55;35.87;;;15.93;;
60030;SDS011;45901;47.600;9.890;2023-01-26T10:42:26;33.00;;;16.27;;
60030;SDS011;45901;47.600;9.890;2023-01-26T10:44:55;31.53;;;15.50;;
60030;SDS011;45901;47.600;9.890;2023-01-26T10:47:23;31.70;;;15.67;;
60030;SDS011;45901;47.600;9.890;2023-01-26T10:49:51;34.07;;;15.90;;
60030;SDS011;45901;47.600;9.890;2023-01-26T10:52:39;28.17;;;14.33;;
60030;SDS011;45901;47.600;9.890;2023-01-26T10:55:23;23.03;;;12.20;;
60030;SDS011;45901;47.600;9.890;2023-01-26T10:57:51;27.10;;;13.13;;
60030;SDS011;45901;47.600;9.890;2023-01-26T11:00:21;27.27;;;13.03;;
60030;SDS011;45901;47.600;9.890;2023-01-26T11:02:53;25.97;;;12.67;;
60030;SDS011;45901;47.600;9.890;2023-01-26T11:05:27;23.37;;;12.00;;
60030;SDS011;45901;47.600;9.890;2023-01-26T11:07:56;23.70;;;11.23;;
60030;SDS011;45901;47.600;9.890;2023-01-26T11:10:26;24.10;;;11.63;;
60030;SDS011;45901;47.600;9.890;2023-01-26T11:13:06;29.87;;;13.17;;
60030;SDS011;45901;47.600;9.890;2023-01-26T11:15:41;20.40;;;11.07;;
60030;SDS011;45901;47.600;9.890;2023-01-26T11:18:17;22.57;;;10.53;;
60030;SDS011;45901;47.600;9.890;2023-01-26T11:20:56;24.60;;;11.67;;
60030;SDS011;45901;47.600;9.890;2023-01-26T11:23:35;21.00;;;10.63;;
60030;SDS011;45901;47.600;9.890;2023-01-26T11:26:30;21.63;;;9.93;;
60030;SDS011;45901;47.600;9.890;2023-01-26T11:29:40;25.47;;;11.57;;
60030;SDS011;45901;47.600;9.890;2023-01-26T11:32:27;24.30;;;11.47;;
60030;SDS011;45901;47.600;9.890;2023-01-26T11:35:06;21.80;;;11.23;;
60030;SDS011;45901;47.600;9.890;2023-01-26T11:37:45;23.43;;;11.20;;
60030;SDS011;45901;47.600;9.890;2023-01-26T11:40:23;20.30;;;10.33;;
60030;SDS011;45901;47.600;9.890;2023-01-26T11:43:02;26.10;;;12.10;;
60030;SDS011;45901;47.600;9.890;2023-01-26T11:45:56;23.63;;;10.67;;
60030;SDS011;45901;47.600;9.890;2023-01-26T11:48:47;19.83;;;10.37;;
60030;SDS011;45901;47.600;9.890;2023-01-26T11:51:29;24.90;;;11.00;;
60030;SDS011;45901;47.600;9.890;2023-01-26T11:54:23;19.70;;;9.90;;
60030;SDS011;45901;47.600;9.890;2023-01-26T11:57:09;19.97;;;8.87;;
60030;SDS011;45901;47.600;9.890;2023-01-26T11:59:47;21.40;;;9.67;;
60030;SDS011;45901;47.600;9.890;2023-01-26T12:02:23;19.07;;;9.13;;
60030;SDS011;45901;47.600;9.890;2023-01-26T12:04:57;17.70;;;8.77;;
60030;SDS011;45901;47.600;9.890;2023-01-26T12:07:33;17.40;;;9.30;;
60030;SDS011;45901;47.600;9.890;2023-01-26T12:10:19;21.03;;;10.23;;
60030;SDS011;45901;47.600;9.890;2023-01-26T12:12:54;22.60;;;11.17;;
60030;SDS011;45901;47.600;9.890;2023-01-26T12:15:31;21.80;;;11.37;;
60030;SDS011;45901;47.600;9.890;2023-01-26T12:18:04;20.43;;;10.40;;
60030;SDS011;45901;47.600;9.890;2023-01-26T12:20:40;23.80;;;10.73;;
60030;SDS011;45901;47.600;9.890;2023-01-26T12:23:12;24.07;;;13.60;;
60030;SDS011;45901;47.600;9.890;2023-01-26T12:25:52;24.07;;;12.97;;
60030;SDS011;45901;47.600;9.890;2023-01-26T12:28:26;19.70;;;10.43;;
60030;SDS011;45901;47.600;9.890;2023-01-26T12:31:01;17.80;;;9.20;;
60030;SDS011;45901;47.600;9.890;2023-01-26T12:33:38;19.53;;;9.63;;
60030;SDS011;45901;47.600;9.890;2023-01-26T12:36:21;15.70;;;8.80;;
60030;SDS011;45901;47.600;9.890;2023-01-26T12:39:11;16.83;;;8.70;;
60030;SDS011;45901;47.600;9.890;2023-01-26T12:41:49;16.63;;;9.40;;
60030;SDS011;45901;47.600;9.890;2023-01-26T12:44:32;17.10;;;8.57;;
60030;SDS011;45901;47.600;9.890;2023-01-26T12:47:05;18.60;;;8.53;;
60030;SDS011;45901;47.600;9.890;2023-01-26T12:49:42;17.27;;;8.60;;
60030;SDS011;45901;47.600;9.890;2023-01-26T12:52:19;15.10;;;8.03;;
60030;SDS011;45901;47.600;9.890;2023-01-26T12:54:54;18.40;;;9.33;;
60030;SDS011;45901;47.600;9.890;2023-01-26T12:57:30;15.83;;;7.67;;
60030;SDS011;45901;47.600;9.890;2023-01-26T13:00:05;15.57;;;7.93;;
60030;SDS011;45901;47.600;9.890;2023-01-26T13:02:44;13.33;;;7.10;;
60030;SDS011;45901;47.600;9.890;2023-01-26T13:05:22;14.57;;;6.63;;
60030;SDS011;45901;47.600;9.890;2023-01-26T13:07:55;13.00;;;7.13;;
60030;SDS011;45901;47.600;9.890;2023-01-26T13:10:24;15.60;;;8.13;;
60030;SDS011;45901;47.600;9.890;2023-01-26T13:19:00;14.83;;;7.27;;
60030;SDS011;45901;47.600;9.890;2023-01-26T13:21:31;15.57;;;7.23;;
60030;SDS011;45901;47.600;9.890;2023-01-26T13:29:58;14.07;;;6.80;;
60030;SDS011;45901;47.600;9.890;2023-01-26T13:35:34;10.80;;;5.97;;
60030;SDS011;45901;47.600;9.890;2023-01-26T13:38:04;14.03;;;7.13;;
60030;SDS011;45901;47.600;9.890;2023-01-26T13:40:40;13.10;;;6.60;;
60030;SDS011;45901;47.600;9.890;2023-01-26T13:43:12;13.33;;;6.77;;
60030;SDS011;45901;47.600;9.890;2023-01-26T13:45:49;13.00;;;6.60;;
60030;SDS011;45901;47.600;9.890;2023-01-26T13:48:35;15.17;;;7.67;;
60030;SDS011;45901;47.600;9.890;2023-01-26T13:51:11;12.93;;;6.97;;
60030;SDS011;45901;47.600;9.890;2023-01-26T13:53:47;13.67;;;6.93;;
60030;SDS011;45901;47.600;9.890;2023-01-26T13:56:23;14.03;;;7.20;;
60030;SDS011;45901;47.600;9.890;2023-01-26T13:59:01;10.70;;;6.20;;
60030;SDS011;45901;47.600;9.890;2023-01-26T14:01:42;13.23;;;6.70;;
60030;SDS011;45901;47.600;9.890;2023-01-26T14:04:14;13.03;;;6.93;;
60030;SDS011;45901;47.600;9.890;2023-01-26T14:06:44;12.10;;;6.37;;
60030;SDS011;45901;47.600;9.890;2023-01-26T14:09:16;13.73;;;6.70;;
60030;SDS011;45901;47.600;9.890;2023-01-26T14:11:53;12.60;;;6.80;;
60030;SDS011;45901;47.600;9.890;2023-01-26T14:14:26;14.10;;;7.60;;
60030;SDS011;45901;47.600;9.890;2023-01-26T14:16:58;13.83;;;6.57;;
60030;SDS011;45901;47.600;9.890;2023-01-26T14:19:27;14.70;;;7.50;;
60030;SDS011;45901;47.600;9.890;2023-01-26T14:21:56;10.53;;;5.97;;
60030;SDS011;45901;47.600;9.890;2023-01-26T14:24:38;11.43;;;6.27;;
60030;SDS011;45901;47.600;9.890;2023-01-26T14:27:05;11.83;;;6.47;;
60030;SDS011;45901;47.600;9.890;2023-01-26T14:30:00;17.43;;;8.83;;
60030;SDS011;45901;47.600;9.890;2023-01-26T14:32:46;14.73;;;8.20;;
60030;SDS011;45901;47.600;9.890;2023-01-26T14:35:20;14.83;;;8.07;;
60030;SDS011;45901;47.600;9.890;2023-01-26T14:37:48;14.77;;;7.97;;
60030;SDS011;45901;47.600;9.890;2023-01-26T14:40:19;12.60;;;7.00;;
60030;SDS011;45901;47.600;9.890;2023-01-26T14:42:51;13.07;;;6.80;;
60030;SDS011;45901;47.600;9.890;2023-01-26T14:45:22;11.67;;;6.50;;
60030;SDS011;45901;47.600;9.890;2023-01-26T14:47:55;15.10;;;7.27;;
60030;SDS011;45901;47.600;9.890;2023-01-26T14:50:26;14.47;;;7.77;;
60030;SDS011;45901;47.600;9.890;2023-01-26T14:52:56;16.37;;;8.80;;
60030;SDS011;45901;47.600;9.890;2023-01-26T14:55:27;15.00;;;7.80;;
60030;SDS011;45901;47.600;9.890;2023-01-26T14:58:30;13.00;;;6.30;;
60030;SDS011;45901;47.600;9.890;2023-01-26T15:00:59;14.67;;;7.60;;
60030;SDS011;45901;47.600;9.890;2023-01-26T15:03:31;12.83;;;6.73;;
60030;SDS011;45901;47.600;9.890;2023-01-26T15:06:17;14.63;;;6.90;;
60030;SDS011;45901;47.600;9.890;2023-01-26T16:35:53;17.30;;;7.20;;
60030;SDS011;45901;47.600;9.890;2023-01-26T16:38:21;16.13;;;7.73;;
60030;SDS011;45901;47.600;9.890;2023-01-26T16:40:48;17.83;;;8.93;;